createdAt,value
2022-09-01T00:01:27.982Z,73.01
2022-09-01T00:04:13.073Z,73.04
2022-09-01T00:07:07.627Z,73.41
2022-09-01T00:10:04.893Z,72.89
2022-09-01T00:12:36.255Z,73.13
2022-09-01T00:15:29.439Z,73.86
2022-09-01T00:20:54.345Z,74.13
2022-09-01T00:23:24.002Z,73.72
2022-09-01T00:26:09.885Z,73.67
2022-09-01T00:28:39.605Z,73.94
2022-09-01T00:31:19.398Z,74.01
2022-09-01T00:33:56.531Z,74.69
2022-09-01T00:36:31.209Z,74.53
2022-09-01T00:39:10.457Z,74.02
2022-09-01T00:41:52.313Z,74.04
2022-09-01T00:44:35.300Z,74.18
2022-09-01T00:47:14.209Z,74.31
2022-09-01T00:50:03.998Z,74.87
2022-09-01T00:52:42.208Z,74.06
2022-09-01T00:55:25.460Z,74.30
2022-09-01T00:58:00.965Z,74.73
2022-09-01T01:00:36.733Z,74.60
2022-09-01T01:03:10.877Z,75.11
2022-09-01T01:05:59.714Z,75.02
2022-09-01T01:08:38.253Z,75.00
2022-09-01T01:11:19.555Z,75.25
2022-09-01T01:14:01.912Z,75.22
2022-09-01T01:16:32.887Z,75.33
2022-09-01T01:19:01.342Z,76.35
2022-09-01T01:22:01.003Z,76.01
2022-09-01T01:24:31.850Z,76.27
2022-09-01T01:27:13.630Z,76.27
2022-09-01T01:29:46.342Z,75.87
2022-09-01T01:32:13.715Z,76.11
2022-09-01T01:34:48.819Z,76.81
2022-09-01T01:37:16.210Z,76.32
2022-09-01T01:39:46.956Z,76.19
2022-09-01T01:42:15.694Z,76.04
2022-09-01T01:44:50.687Z,76.16
2022-09-01T01:47:21.665Z,75.78
2022-09-01T01:49:48.478Z,76.34
2022-09-01T01:52:26.320Z,76.07
2022-09-01T01:55:05.345Z,76.45
2022-09-01T01:57:36.105Z,76.39
2022-09-01T02:00:08.909Z,76.30
2022-09-01T02:02:38.438Z,76.68
2022-09-01T02:05:13.785Z,76.44
2022-09-01T02:07:44.022Z,76.84
2022-09-01T02:10:17.516Z,76.90
2022-09-01T02:12:54.659Z,76.90
2022-09-01T02:15:21.784Z,77.27
2022-09-01T02:17:49.153Z,77.39
2022-09-01T02:20:17.290Z,77.63
2022-09-01T02:22:46.325Z,77.72
2022-09-01T02:25:17.149Z,77.76
2022-09-01T02:27:44.275Z,78.06
2022-09-01T02:30:13.049Z,78.24
2022-09-01T02:32:43.243Z,78.49
2022-09-01T02:35:11.934Z,78.42
2022-09-01T02:37:40.992Z,79.17
2022-09-01T02:40:10.463Z,78.20
2022-09-01T02:42:43.734Z,78.55
2022-09-01T02:45:17.339Z,78.55
2022-09-01T02:47:47.510Z,78.64
2022-09-01T02:50:17.580Z,78.81
2022-09-01T02:52:46.395Z,78.63
2022-09-01T02:55:14.305Z,78.86
2022-09-01T02:57:41.997Z,79.09
2022-09-01T03:00:23.142Z,78.94
2022-09-01T03:02:53.184Z,79.15
2022-09-01T03:05:29.948Z,79.03
2022-09-01T03:08:02.508Z,79.41
2022-09-01T03:10:36.650Z,79.33
2022-09-01T03:13:08.857Z,79.49
2022-09-01T03:15:39.446Z,79.86
2022-09-01T03:18:09.625Z,79.96
2022-09-01T03:20:39.787Z,80.07
2022-09-01T03:23:11.426Z,80.01
2022-09-01T03:25:44.896Z,81.04
2022-09-01T03:28:15.790Z,80.53
2022-09-01T03:30:50.623Z,80.39
2022-09-01T03:33:19.539Z,80.40
2022-09-01T03:35:47.040Z,80.37
2022-09-01T03:38:22.746Z,80.27
2022-09-01T03:40:55.084Z,80.26
2022-09-01T03:43:27.059Z,80.52
2022-09-01T03:46:01.665Z,80.42
2022-09-01T03:48:29.880Z,80.37
2022-09-01T03:51:02.970Z,80.28
2022-09-01T03:53:40.455Z,80.44
2022-09-01T03:56:09.769Z,80.23
2022-09-01T03:58:38.542Z,80.32
2022-09-01T04:01:05.725Z,80.77
2022-09-01T04:03:40.815Z,80.63
2022-09-01T04:06:15.043Z,80.54
2022-09-01T04:08:43.726Z,80.81
2022-09-01T04:11:17.877Z,80.79
2022-09-01T04:13:46.579Z,81.17
2022-09-01T04:16:40.886Z,81.47
2022-09-01T04:19:21.263Z,81.50
2022-09-01T04:21:52.597Z,81.62
2022-09-01T04:24:20.618Z,81.64
2022-09-01T04:26:49.215Z,82.02
2022-09-01T04:29:19.537Z,82.45
2022-09-01T04:31:52.252Z,82.74
2022-09-01T04:34:23.024Z,82.82
2022-09-01T04:36:58.966Z,82.80
2022-09-01T04:39:26.818Z,83.05
2022-09-01T04:41:54.368Z,83.20
2022-09-01T04:44:22.437Z,83.07
2022-09-01T04:46:51.546Z,83.18
2022-09-01T04:49:25.053Z,83.74
2022-09-01T04:51:55.057Z,83.83
2022-09-01T04:54:23.221Z,83.82
2022-09-01T04:56:52.821Z,83.90
2022-09-01T04:59:26.035Z,83.83
2022-09-01T05:01:56.086Z,83.91
2022-09-01T05:04:32.782Z,83.64
2022-09-01T05:07:01.414Z,83.74
2022-09-01T05:09:35.860Z,84.00
2022-09-01T05:12:15.928Z,83.94
2022-09-01T05:14:52.983Z,83.78
2022-09-01T05:17:20.557Z,84.14
2022-09-01T05:19:51.358Z,84.04
2022-09-01T05:22:23.499Z,83.71
2022-09-01T05:24:55.394Z,84.36
2022-09-01T05:28:08.395Z,83.93
2022-09-01T05:30:41.362Z,83.27
2022-09-01T05:33:13.598Z,83.37
2022-09-01T05:35:45.618Z,83.27
2022-09-01T05:38:14.230Z,83.11
2022-09-01T05:40:42.714Z,83.06
2022-09-01T05:43:15.170Z,83.09
2022-09-01T05:46:05.725Z,83.07
2022-09-01T05:48:48.401Z,83.61
2022-09-01T05:51:42.795Z,83.49
2022-09-01T05:54:10.831Z,83.80
2022-09-01T05:56:43.660Z,84.00
2022-09-01T05:59:24.712Z,83.60
2022-09-01T06:02:03.062Z,83.33
2022-09-01T06:04:31.803Z,83.06
2022-09-01T06:07:06.898Z,83.16
2022-09-01T06:09:40.227Z,83.13
2022-09-01T06:12:07.543Z,83.19
2022-09-01T06:14:35.354Z,83.54
2022-09-01T06:17:04.596Z,83.18
2022-09-01T06:19:37.221Z,83.15
2022-09-01T06:22:05.240Z,83.30
2022-09-01T06:24:32.481Z,83.17
2022-09-01T06:27:00.297Z,83.37
2022-09-01T06:29:38.772Z,83.45
2022-09-01T06:32:13.799Z,83.43
2022-09-01T06:34:43.046Z,83.42
2022-09-01T06:37:11.374Z,83.37
2022-09-01T06:39:40.077Z,82.94
2022-09-01T06:42:11.446Z,83.18
2022-09-01T06:44:41.085Z,82.89
2022-09-01T06:47:09.329Z,83.14
2022-09-01T06:49:40.291Z,82.72
2022-09-01T06:52:07.922Z,82.32
2022-09-01T06:54:40.007Z,82.36
2022-09-01T06:59:58.162Z,82.65
2022-09-01T07:02:26.873Z,83.11
2022-09-01T07:04:57.488Z,83.23
2022-09-01T07:10:28.254Z,81.80
2022-09-01T07:13:07.578Z,82.12
2022-09-01T07:18:34.253Z,81.85
2022-09-01T07:21:36.358Z,81.60
2022-09-01T07:24:07.820Z,81.47
2022-09-01T07:26:48.537Z,81.27
2022-09-01T07:29:18.388Z,81.42
2022-09-01T07:31:49.364Z,81.48
2022-09-01T07:39:55.354Z,81.58
2022-09-01T07:45:28.700Z,80.77
2022-09-01T07:47:59.766Z,80.66
2022-09-01T07:50:41.374Z,80.48
2022-09-01T07:53:22.801Z,80.14
2022-09-01T07:58:33.956Z,78.53
2022-09-01T08:01:04.248Z,78.11
2022-09-01T08:03:31.507Z,78.46
2022-09-01T08:06:18.591Z,78.54
2022-09-01T08:09:00.726Z,78.17
2022-09-01T08:12:02.304Z,77.87
2022-09-01T08:14:36.192Z,77.02
2022-09-01T08:23:29.365Z,76.76
2022-09-01T08:25:58.560Z,76.75
2022-09-01T08:28:26.969Z,76.92
2022-09-01T08:31:10.492Z,76.59
2022-09-01T08:33:41.063Z,75.79
2022-09-01T08:36:12.814Z,75.27
2022-09-01T08:38:42.437Z,74.94
2022-09-01T08:41:27.771Z,74.82
2022-09-01T08:44:19.769Z,74.50
2022-09-01T08:46:47.457Z,74.43
2022-09-01T08:49:27.066Z,73.64
2022-09-01T08:52:07.761Z,72.95
2022-09-01T08:54:43.569Z,72.45
2022-09-01T08:57:20.158Z,72.88
2022-09-01T08:59:58.300Z,72.90
2022-09-01T09:02:56.958Z,75.01
2022-09-01T09:05:42.136Z,72.48
2022-09-01T09:08:36.606Z,71.85
2022-09-01T09:11:41.010Z,71.39
2022-09-01T09:14:17.057Z,71.75
2022-09-01T09:16:53.507Z,71.61
2022-09-01T09:19:27.949Z,71.61
2022-09-01T09:22:07.632Z,71.70
2022-09-01T09:24:53.121Z,71.38
2022-09-01T09:27:27.967Z,71.16
2022-09-01T09:29:58.328Z,71.52
2022-09-01T09:33:25.110Z,71.89
2022-09-01T09:35:42.757Z,70.91
2022-09-01T09:38:33.328Z,69.90
2022-09-01T09:41:17.707Z,69.37
2022-09-01T09:43:50.225Z,69.03
2022-09-01T09:46:32.676Z,68.92
2022-09-01T09:49:35.212Z,68.57
2022-09-01T09:52:10.490Z,68.75
2022-09-01T09:55:23.982Z,68.54
2022-09-01T09:57:55.159Z,68.75
2022-09-01T10:00:34.736Z,68.74
2022-09-01T10:03:12.558Z,68.36
2022-09-01T10:06:05.605Z,68.52
2022-09-01T10:08:46.161Z,67.83
2022-09-01T10:11:33.533Z,67.99
2022-09-01T10:14:35.938Z,68.35
2022-09-01T10:17:49.119Z,68.31
2022-09-01T10:20:30.127Z,68.55
2022-09-01T10:23:03.810Z,68.66
2022-09-01T10:25:39.631Z,68.85
2022-09-01T10:28:20.868Z,68.75
2022-09-01T10:31:17.607Z,69.04
2022-09-01T10:33:45.437Z,69.49
2022-09-01T10:36:17.392Z,69.36
2022-09-01T10:38:54.513Z,70.29
2022-09-01T10:41:53.287Z,70.13
2022-09-01T10:44:39.551Z,70.55
2022-09-01T10:47:38.932Z,70.53
2022-09-01T10:50:36.577Z,70.53
2022-09-01T10:56:44.161Z,70.44
2022-09-01T10:59:35.735Z,71.55
2022-09-01T11:02:29.481Z,70.58
2022-09-01T11:05:05.684Z,69.94
2022-09-01T11:08:01.537Z,68.43
2022-09-01T11:10:57.215Z,69.26
2022-09-01T11:13:49.010Z,68.85
2022-09-01T11:16:48.012Z,67.91
2022-09-01T11:19:39.843Z,67.03
2022-09-01T11:22:21.735Z,66.53
2022-09-01T11:25:14.310Z,66.82
2022-09-01T11:27:50.772Z,64.39
2022-09-01T11:30:39.144Z,64.69
2022-09-01T11:33:24.602Z,63.27
2022-09-01T11:36:13.211Z,63.32
2022-09-01T11:38:51.851Z,62.78
2022-09-01T11:41:34.185Z,60.43
2022-09-01T11:44:04.600Z,59.87
2022-09-01T11:46:35.126Z,57.40
2022-09-01T11:49:08.696Z,57.11
2022-09-01T11:51:47.687Z,57.06
2022-09-01T11:54:15.919Z,56.29
2022-09-01T11:56:43.354Z,55.69
2022-09-01T11:59:10.822Z,55.39
2022-09-01T12:01:40.655Z,54.09
2022-09-01T12:04:32.264Z,52.87
2022-09-01T12:07:11.169Z,53.66
2022-09-01T12:09:48.317Z,52.05
2022-09-01T12:12:32.722Z,52.13
2022-09-01T12:15:11.072Z,50.69
2022-09-01T12:17:40.964Z,51.11
2022-09-01T12:20:29.501Z,49.80
2022-09-01T12:22:59.199Z,49.96
2022-09-01T12:25:33.557Z,48.83
2022-09-01T12:28:01.859Z,48.49
2022-09-01T12:30:30.298Z,48.86
2022-09-01T12:35:47.245Z,47.87
2022-09-01T12:38:20.259Z,47.83
2022-09-01T12:40:50.467Z,47.71
2022-09-01T12:43:37.080Z,47.94
2022-09-01T12:46:07.200Z,48.50
2022-09-01T12:48:39.041Z,48.76
2022-09-01T12:51:26.547Z,48.22
2022-09-01T12:54:04.527Z,47.54
2022-09-01T12:56:39.592Z,47.77
2022-09-01T12:59:15.526Z,48.38
2022-09-01T13:01:44.509Z,48.85
2022-09-01T13:04:23.093Z,49.07
2022-09-01T13:06:51.173Z,49.83
2022-09-01T13:09:18.419Z,49.78
2022-09-01T13:12:06.511Z,50.34
2022-09-01T13:14:34.077Z,49.03
2022-09-01T13:17:01.481Z,48.65
2022-09-01T13:19:30.625Z,49.56
2022-09-01T13:21:58.003Z,49.56
2022-09-01T13:24:29.411Z,49.80
2022-09-01T13:27:22.366Z,49.92
2022-09-01T13:29:54.687Z,49.86
2022-09-01T13:32:23.349Z,49.74
2022-09-01T13:34:52.596Z,50.32
2022-09-01T13:37:21.414Z,50.63
2022-09-01T13:39:49.409Z,50.86
2022-09-01T13:42:18.172Z,50.85
2022-09-01T13:44:48.391Z,50.72
2022-09-01T13:47:33.862Z,50.86
2022-09-01T13:50:10.547Z,51.29
2022-09-01T13:52:40.802Z,50.80
2022-09-01T13:55:10.832Z,50.33
2022-09-01T13:57:38.583Z,50.71
2022-09-01T14:00:13.325Z,51.10
2022-09-01T14:02:43.219Z,50.83
2022-09-01T14:05:11.357Z,52.08
2022-09-01T14:07:51.383Z,51.48
2022-09-01T14:10:25.122Z,50.77
2022-09-01T14:13:03.538Z,51.13
2022-09-01T14:15:30.408Z,51.42
2022-09-01T14:17:58.210Z,51.46
2022-09-01T14:20:33.375Z,51.29
2022-09-01T14:23:26.571Z,51.48
2022-09-01T14:25:53.673Z,51.78
2022-09-01T14:28:22.449Z,51.98
2022-09-01T14:33:17.875Z,52.18
2022-09-01T14:36:00.094Z,52.20
2022-09-01T14:38:26.891Z,52.32
2022-09-01T14:40:53.811Z,52.12
2022-09-01T14:43:21.271Z,52.36
2022-09-01T14:45:49.576Z,52.50
2022-09-01T14:48:37.138Z,52.37
2022-09-01T14:51:04.296Z,52.71
2022-09-01T14:53:32.073Z,52.67
2022-09-01T14:56:01.170Z,52.07
2022-09-01T14:58:43.368Z,52.61
2022-09-01T15:01:32.682Z,53.10
2022-09-01T15:03:57.805Z,53.25
2022-09-01T15:06:24.788Z,53.32
2022-09-01T15:08:51.774Z,53.05
2022-09-01T15:11:20.402Z,52.94
2022-09-01T15:14:03.948Z,52.81
2022-09-01T15:16:30.867Z,52.80
2022-09-01T15:18:57.868Z,52.81
2022-09-01T15:21:34.073Z,52.94
2022-09-01T15:24:02.931Z,54.04
2022-09-01T15:26:32.817Z,52.96
2022-09-01T15:28:59.930Z,53.16
2022-09-01T15:31:39.835Z,53.01
2022-09-01T15:34:19.206Z,52.90
2022-09-01T15:37:03.830Z,53.25
2022-09-01T15:39:37.755Z,52.79
2022-09-01T15:42:05.562Z,53.55
2022-09-01T15:44:34.182Z,53.13
2022-09-01T15:47:10.395Z,53.73
2022-09-01T15:49:37.232Z,53.77
2022-09-01T15:52:04.542Z,54.66
2022-09-01T15:54:38.459Z,54.45
2022-09-01T15:57:06.678Z,54.47
2022-09-01T15:59:42.033Z,53.56
2022-09-01T16:02:18.115Z,53.79
2022-09-01T16:04:47.743Z,53.24
2022-09-01T16:07:17.137Z,54.11
2022-09-01T16:09:46.334Z,54.06
2022-09-01T16:12:13.616Z,53.53
2022-09-01T16:14:42.391Z,54.26
2022-09-01T16:17:45.784Z,53.96
2022-09-01T16:20:36.059Z,54.11
2022-09-01T16:23:37.483Z,53.35
2022-09-01T16:26:08.156Z,53.50
2022-09-01T16:29:00.685Z,53.80
2022-09-01T16:31:32.188Z,54.54
2022-09-01T16:34:19.242Z,54.42
2022-09-01T16:36:56.642Z,54.40
2022-09-01T16:39:23.684Z,53.96
2022-09-01T16:42:03.707Z,54.25
2022-09-01T16:44:58.301Z,54.05
2022-09-01T16:47:45.277Z,54.17
2022-09-01T16:50:16.148Z,55.01
2022-09-01T16:53:08.226Z,54.67
2022-09-01T16:56:14.185Z,54.92
2022-09-01T16:58:52.838Z,55.16
2022-09-01T17:01:31.143Z,54.91
2022-09-01T17:04:17.098Z,55.46
2022-09-01T17:06:55.716Z,55.52
2022-09-01T17:09:40.312Z,55.60
2022-09-01T17:12:28.284Z,55.78
2022-09-01T17:15:10.371Z,56.08
2022-09-01T17:17:53.842Z,55.05
2022-09-01T17:20:28.200Z,55.45
2022-09-01T17:23:00.422Z,54.66
2022-09-01T17:25:33.945Z,55.15
2022-09-01T17:28:07.188Z,54.99
2022-09-01T17:30:44.898Z,55.27
2022-09-01T17:33:18.654Z,55.69
2022-09-01T17:36:07.930Z,55.92
2022-09-01T17:38:54.371Z,55.59
2022-09-01T17:41:41.526Z,55.98
2022-09-01T17:44:29.957Z,56.58
2022-09-01T17:47:03.636Z,55.98
2022-09-01T17:49:44.806Z,56.59
2022-09-01T17:53:10.595Z,56.89
2022-09-01T17:55:40.714Z,57.09
2022-09-01T17:58:13.825Z,57.45
2022-09-01T18:01:10.070Z,57.44
2022-09-01T18:03:45.885Z,57.45
2022-09-01T18:06:42.805Z,57.92
2022-09-01T18:09:14.788Z,58.20
2022-09-01T18:11:57.877Z,58.33
2022-09-01T18:14:48.121Z,58.91
2022-09-01T18:17:23.435Z,59.66
2022-09-01T18:20:03.813Z,59.86
2022-09-01T18:22:43.297Z,60.13
2022-09-01T18:25:19.492Z,60.89
2022-09-01T18:27:49.026Z,61.08
2022-09-01T18:30:26.247Z,60.92
2022-09-01T18:33:25.239Z,61.54
2022-09-01T18:36:29.549Z,61.27
2022-09-01T18:38:59.603Z,61.81
2022-09-01T18:41:49.937Z,62.23
2022-09-01T18:44:32.214Z,61.92
2022-09-01T18:46:59.282Z,62.05
2022-09-01T18:49:39.939Z,62.65
2022-09-01T18:52:35.480Z,62.76
2022-09-01T18:55:35.008Z,62.71
2022-09-01T18:58:37.012Z,62.70
2022-09-01T19:01:07.438Z,62.32
2022-09-01T19:04:10.330Z,62.88
2022-09-01T19:07:04.230Z,63.07
2022-09-01T19:09:43.013Z,63.22
2022-09-01T19:12:21.989Z,63.76
2022-09-01T19:14:55.194Z,63.85
2022-09-01T19:17:36.743Z,64.09
2022-09-01T19:20:26.904Z,63.93
2022-09-01T19:23:04.866Z,64.50
2022-09-01T19:25:34.543Z,64.72
2022-09-01T19:28:03.743Z,64.46
2022-09-01T19:30:35.416Z,65.05
2022-09-01T19:33:05.505Z,65.27
2022-09-01T19:35:34.581Z,64.71
2022-09-01T19:38:06.099Z,65.00
2022-09-01T19:40:39.593Z,65.11
2022-09-01T19:43:22.557Z,65.63
2022-09-01T19:46:23.183Z,65.99
2022-09-01T19:48:59.789Z,66.25
2022-09-01T19:52:10.062Z,66.18
2022-09-01T19:55:30.497Z,66.42
2022-09-01T19:58:06.770Z,66.31
2022-09-01T20:00:54.071Z,66.65
2022-09-01T20:03:29.620Z,67.01
2022-09-01T20:06:10.790Z,66.99
2022-09-01T20:08:49.893Z,67.35
2022-09-01T20:11:17.111Z,66.99
2022-09-01T20:14:17.722Z,67.92
2022-09-01T20:16:52.566Z,67.07
2022-09-01T20:19:57.471Z,67.23
2022-09-01T20:22:39.626Z,67.44
2022-09-01T20:25:13.102Z,67.45
2022-09-01T20:27:48.149Z,67.21
2022-09-01T20:30:20.572Z,67.70
2022-09-01T20:33:02.697Z,67.45
2022-09-01T20:35:44.616Z,67.26
2022-09-01T20:38:46.349Z,67.81
2022-09-01T20:41:37.452Z,68.27
2022-09-01T20:44:31.246Z,68.46
2022-09-01T20:46:59.633Z,68.19
2022-09-01T20:49:27.180Z,68.21
2022-09-01T20:52:02.698Z,68.46
2022-09-01T20:54:56.120Z,68.66
2022-09-01T20:57:47.332Z,68.60
2022-09-01T21:00:23.240Z,68.46
2022-09-01T21:03:18.321Z,68.74
2022-09-01T21:06:12.568Z,68.44
2022-09-01T21:08:49.094Z,68.55
2022-09-01T21:11:19.294Z,68.46
2022-09-01T21:13:53.195Z,69.11
2022-09-01T21:16:59.664Z,68.24
2022-09-01T21:19:46.101Z,68.74
2022-09-01T21:22:21.163Z,68.84
2022-09-01T21:24:50.045Z,68.86
2022-09-01T21:27:23.235Z,68.86
2022-09-01T21:30:18.789Z,69.30
2022-09-01T21:32:46.560Z,69.34
2022-09-01T21:35:22.791Z,69.82
2022-09-01T21:37:50.773Z,69.74
2022-09-01T21:40:22.088Z,69.55
2022-09-01T21:43:03.308Z,69.33
2022-09-01T21:45:35.434Z,69.74
2022-09-01T21:48:04.127Z,69.74
2022-09-01T21:50:31.132Z,69.73
2022-09-01T21:52:58.018Z,69.45
2022-09-01T21:55:25.201Z,69.46
2022-09-01T21:57:52.747Z,70.08
2022-09-01T22:00:23.088Z,69.76
2022-09-01T22:02:50.813Z,69.96
2022-09-01T22:05:17.811Z,69.92
2022-09-01T22:07:46.749Z,69.91
2022-09-01T22:10:21.397Z,70.03
2022-09-01T22:12:50.029Z,70.79
2022-09-01T22:15:21.939Z,70.66
2022-09-01T22:17:49.667Z,70.16
2022-09-01T22:20:19.163Z,70.53
2022-09-01T22:22:46.933Z,71.66
2022-09-01T22:25:16.890Z,71.03
2022-09-01T22:27:51.322Z,71.08
2022-09-01T22:30:19.423Z,71.18
2022-09-01T22:32:48.141Z,72.47
2022-09-01T22:35:16.699Z,72.84
2022-09-01T22:37:43.874Z,73.31
2022-09-01T22:40:12.893Z,73.86
2022-09-01T22:42:39.761Z,75.99
2022-09-01T22:45:08.615Z,76.81
2022-09-01T22:47:38.227Z,77.23
2022-09-01T22:50:13.199Z,77.92
2022-09-01T22:52:40.390Z,79.45
2022-09-01T22:55:09.094Z,80.62
2022-09-01T22:57:37.125Z,81.96
2022-09-01T23:00:08.910Z,82.11
2022-09-01T23:02:36.396Z,82.69
2022-09-01T23:05:03.591Z,83.30
2022-09-01T23:07:35.223Z,84.45
2022-09-01T23:10:06.933Z,85.49
2022-09-01T23:12:33.876Z,85.41
2022-09-01T23:15:00.666Z,85.30
2022-09-01T23:17:27.586Z,86.06
2022-09-01T23:19:54.694Z,86.32
2022-09-01T23:22:21.646Z,85.70
2022-09-01T23:24:48.455Z,84.47
2022-09-01T23:27:15.362Z,83.81
2022-09-01T23:29:42.198Z,84.34
2022-09-01T23:32:09.084Z,84.96
2022-09-01T23:34:36.016Z,85.40
2022-09-01T23:37:02.845Z,85.62
2022-09-01T23:39:29.659Z,86.65
2022-09-01T23:41:56.580Z,87.33
2022-09-01T23:44:23.838Z,87.17
2022-09-01T23:46:50.998Z,88.11
2022-09-01T23:49:18.981Z,89.04
2022-09-01T23:51:47.682Z,89.06
2022-09-01T23:54:15.542Z,88.95
2022-09-01T23:56:42.337Z,89.45
2022-09-01T23:59:12.347Z,89.50
